APRS [IN73DL], 0 Stunde(n), DL3EL [04:56:08, 0s].
ED1ZAE 43.27.97N 005.40.54WIN73DL 2.985km 119°ESE02:41:59ZWIDE3-3 ESAS3-3 IN73DL WWW.EA1URG.ORG(3ED1ZAE-3)
2m Voice 145.5875 -0.600 Mhz(2ED1ZAE-C)
ED1ZAS 43.27.52N 005.40.17WIN73DL 3.853km 126°SE02:32:11ZRD985 438.2250/430.6250 CC1
EA1FFA 43.31.53N 005.40.64WIN73DM 5.738km 26°NNE02:30:58ZMMDVM MMDVM HS Hat 438.8000/438.8000 CC1
EA1DZR 43.31.48N 005.40.00WIN73EM 6.068km 34°NE02:31:58ZMMDVM DVS 434.3500/434.3500 CC1
EA1IEJ 43.31.81N 005.40.25WIN73DM 6.438km 28°NNE02:30:35ZMMDVM MMDVM HS Hat 438.8500/438.8500 CC6
EB1TK 43.32.22N 005.42.32WIN73DM 6.449km N02:50:17ZEB1TK-6>CQ,TCPIP*,qAC,T2SPAIN2:SatGate - APRS Satellite Traffic and Reporting System (ASTARS)(3EB1TK-6)
Wind 196°/003kn, Böen bis 007kn, Temp 12.22c, Regen 0.0mm, letzte 24h 0.0mm, seit 0h 0.0mm, Baro 1025.4h, Hum: 84%(2EB1TK-13)
EA1IPU 43.26.21N 005.46.62WIN73CK 7.263km 230°SW02:30:13ZMMDVM MMDVM HS Hat 439.8000/439.8000 CC1
LEEL 43.32.98N 005.41.71WIN73DN 7.904km N02:30:04ZHelipuerto de El Musel: AUTO LEAS 220130Z 23006KT 9999 FEW036 12/10 Q1022=
EB1GEM 43.30.00N 005.36.07WIN73EM 8.950km 75°ENE02:51:33ZWX3in1Plus2.0 U=13.3V,T=??.?C/??.?F(3EB1GEM-3)
EA1ABW 43.24.77N 005.47.77WIN73CJ 10.230km 224°SW02:30:24ZMMDVM MMDVM HS Hat 439.8250/439.8250 CC1
LEGM 43.26.15N 005.49.84WIN73CK 10.981km 244°WSW02:30:03ZHelipuerto de La Morgal: AUTO LEAS 220130Z 23006KT 9999 FEW036 12/10 Q1022=
LEMR 43.25.83N 005.49.60WIN73CK 10.992km 241°WSW02:30:04ZAerodromo de la Morgal: AUTO LEAS 220130Z 23006KT 9999 FEW036 12/10 Q1022=
LEHU 43.22.63N 005.49.57WIN73CJ 14.816km 220°SW02:30:03ZHelipuerto del HUCA: AUTO LEAS 220130Z 23006KT 9999 FEW036 12/10 Q1022=
EA1FLQ 43.22.00N 005.36.35WIN73EI 14.992km 147°SSE02:31:05ZMMDVM DVMega 439.9750/439.9750 CC1
ED1ZAU 43.23.04N 005.52.75WIN73BJ 17.398km 233°SW02:32:11ZRD625 438.5000/430.9000 CC1
33D00 43.21.63N 005.51.13WIN73BI 17.582km 221°SW02:01:46Z33-D-00 Protección Civil REMER / Delegación del Gobierno en Asturias
EA1AHA 43.32.72N 005.54.38WIN73BN 17.586km 295°WNW02:55:58ZWind 000°/000kn, Böen bis 000kn, Temp 13.89c, Regen 0.0mm, letzte 24h 0.0mm, seit 0h 0.0mm, Baro 1023.9h, Hum: 76%(3EA1AHA-13)
EA1YR 43.22.09N 005.51.86WIN73BI 17.635km 226°SW02:31:59ZMMDVM DVS 434.3500/434.3500 CC1
EA1HJA 43.21.47N 005.52.09WIN73BI 18.670km 224°SW02:49:40Z IN73FL WX3IN1+ 2.0 - V=13.2V,TX TEMP=28.2C(3EA1HJA-2)
EA1HJA@URE.ES(2EA1HJA)
ED1ZAY 43.29.47N 005.56.54WIN73AL 18.940km 274°W02:32:10ZRD625 438.3000/430.7000 CC1
EA1L 43.20.37N 005.51.13WIN73BI 19.382km 217°SW02:50:05Zea1l@ure.es V=13.9V,T=??.?C
Wind 144°/000kn, Böen bis 000kn, Temp 12.22c, Regen 0.0mm, letzte 24h 0.0mm, seit 0h 0.0mm, Baro 1020.6h, Hum: 95%(2EA1L-13)
EA1JAY 43.29.33N 005.26.78WIN73GL 21.160km 87°E02:15:14ZEA1JAY(3EA1JAY-2)
EA1FHR 43.28.72N 005.26.41WIN73GL 21.618km 90°E02:30:18ZMMDVM MMDVM HS Hat 439.1500/439.1500 CC1
EA1HWD 43.28.96N 005.26.30WIN73GL 21.782km 89°E02:31:03Z144.575FM Local frecuency VHF. 434.2500/434.2500 CC1
EA1DHE 43.33.98N 005.58.57WIN73AN 23.675km 294°WNW02:31:55ZMMDVM DVS 434.3500/434.3500 CC1
EB1DGC 43.12.60N 005.45.59WIN73CF 30.219km 188°S02:30:38ZMMDVM MMDVM HS Hat 433.4500/433.4500 CC1
EA1JBL 43.12.28N 005.47.42WIN73CE 31.219km 192°SSW02:31:16ZMMDVM DVMega 435.3000/435.3000 CC1
EA1HWA 43.12.00N 005.47.40WIN73CE 31.736km 192°SSW02:30:51ZMMDVM MMDVM HS Hat 433.4500/433.4500 CC1
EA1JBU 43.30.80N 005.16.20WIN73IM 35.539km 84°E02:45:04ZEA1JBU(3EA1JBU-2)
EA1JBE 43.30.90N 005.16.15WIN73IM 35.639km 83°E02:45:03ZEA1JBU(3EA1JBE-13)
MAIN QTH http://qrz.com/db/ea1jbe(2EA1JBE-1)
EA1RCG 43.09.45N 005.49.78WIN73CD 37.074km 195°SSW02:31:30ZGRUPO RADIO GALENA (GRG) 433.4500/433.4500 CC1
ED1ZAD 43.07.90N 005.38.52WIN73ED 38.988km 172°S02:41:31ZED1ZAD-3 APRS Digi/Igate(3ED1ZAD-3)
EA1GS 43.23.36N 005.11.20WIN73JJ 43.264km 103°ESE02:31:16ZMMDVM MMDVM HS Hat 436.1000/436.1000 CC1

aprs.pl 5.0.011w DL3EL © 2006-2021 [1034583]